Time;durP1;ratioP1;P1;durP2;ratioP2;P2;SDS_P1;SDS_P2;PMS_P1;PMS_P2;Temp;Humidity;BMP_temperature;BMP_pressure;BME280_temperature;BME280_humidity;BME280_pressure;Samples;Min_cycle;Max_cycle;Signal;HPM_P1;HPM_P2
2021/07/30 00:00:42;;;;;;;2.58;2.00;;;;;;;17.62;53.32;99663.75;10518212;28;20047;-71
2021/07/30 00:05:44;;;;;;;3.28;2.10;;;;;;;17.51;53.28;99666.25;10536960;28;20043;-73
2021/07/30 00:10:54;;;;;;;2.40;2.20;;;;;;;17.34;54.11;99664.72;10518856;28;20048;-73
2021/07/30 00:15:55;;;;;;;2.75;1.73;;;;;;;17.26;54.11;99666.16;10536473;28;20051;-72
2021/07/30 00:20:57;;;;;;;2.20;1.98;;;;;;;17.27;54.22;99666.09;10536348;28;20465;-72
2021/07/30 00:26:02;;;;;;;2.38;1.80;;;;;;;17.05;55.69;99674.59;10536564;28;20043;-72
2021/07/30 00:31:04;;;;;;;3.05;2.38;;;;;;;16.80;56.30;99669.13;10535809;28;20047;-72
2021/07/30 00:36:06;;;;;;;2.22;1.98;;;;;;;16.58;56.71;99680.19;10518275;28;20059;-72
2021/07/30 00:41:07;;;;;;;2.53;2.22;;;;;;;16.46;57.75;99683.59;10535080;28;20055;-72
2021/07/30 00:46:09;;;;;;;2.15;1.95;;;;;;;16.38;57.63;99678.78;10516365;28;20044;-73
2021/07/30 00:51:12;;;;;;;2.55;2.22;;;;;;;16.41;58.02;99678.59;10534658;28;20051;-72
2021/07/30 00:56:14;;;;;;;2.05;1.83;;;;;;;16.47;57.38;99680.00;10535323;28;20377;-72
2021/07/30 01:01:17;;;;;;;3.03;2.03;;;;;;;16.72;57.07;99687.31;10517692;28;20358;-71
2021/07/30 01:06:19;;;;;;;2.72;2.28;;;;;;;16.59;57.68;99680.09;10535956;28;20036;-72
2021/07/30 01:11:21;;;;;;;2.20;1.90;;;;;;;16.38;58.67;99689.41;10535926;28;20106;-71
2021/07/30 01:16:22;;;;;;;3.92;2.40;;;;;;;16.32;58.63;99684.47;10509181;28;20511;-72
2021/07/30 01:21:34;;;;;;;2.40;2.15;;;;;;;16.40;57.96;99690.16;10526000;28;20079;-71
2021/07/30 01:26:35;;;;;;;2.70;2.10;;;;;;;16.52;58.22;99683.25;10525693;28;20139;-73
2021/07/30 01:31:37;;;;;;;2.58;2.00;;;;;;;16.19;58.36;99683.50;10526087;28;20040;-71
2021/07/30 01:36:38;;;;;;;2.38;2.10;;;;;;;16.00;58.75;99684.59;10525589;28;20067;-71
2021/07/30 01:41:40;;;;;;;2.67;2.47;;;;;;;15.95;59.37;99685.84;10524841;28;20078;-71
2021/07/30 01:46:42;;;;;;;2.33;2.13;;;;;;;15.86;59.10;99680.13;10543188;28;20048;-73
2021/07/30 01:51:44;;;;;;;3.88;2.10;;;;;;;15.87;59.31;99675.69;10524483;28;20048;-73
2021/07/30 01:56:45;;;;;;;3.05;2.22;;;;;;;15.79;59.64;99678.78;10543339;28;20048;-73
2021/07/30 02:01:47;;;;;;;2.72;2.25;;;;;;;15.74;59.50;99677.34;10542206;28;20078;-72
2021/07/30 02:06:48;;;;;;;2.20;2.00;;;;;;;15.74;59.60;99678.19;10541955;28;20123;-73
2021/07/30 02:11:51;;;;;;;2.67;2.35;;;;;;;15.64;59.70;99675.22;10523488;28;20040;-72
2021/07/30 02:16:55;;;;;;;2.72;2.38;;;;;;;15.61;60.59;99675.38;10541420;28;20430;-72
2021/07/30 02:21:57;;;;;;;2.47;2.28;;;;;;;15.63;60.57;99678.81;10541403;28;20055;-72
2021/07/30 02:26:59;;;;;;;2.63;2.28;;;;;;;15.64;60.61;99677.03;10540312;28;20157;-72
2021/07/30 02:32:00;;;;;;;2.35;2.13;;;;;;;15.57;60.34;99676.50;10522066;28;20051;-72
2021/07/30 02:37:34;;;;;;;2.45;2.25;;;;;;;15.57;60.50;99670.34;10541114;28;20078;-72
2021/07/30 02:42:36;;;;;;;2.60;2.40;;;;;;;15.55;60.60;99670.44;10411633;28;20042;-72
2021/07/30 02:47:38;;;;;;;2.42;2.22;;;;;;;15.42;60.74;99673.88;10416159;28;20069;-71
2021/07/30 02:52:40;;;;;;;1.77;1.67;;;;;;;15.57;60.01;99671.19;10412773;28;20398;-71
2021/07/30 02:57:44;;;;;;;2.80;2.00;;;;;;;15.51;60.45;99676.84;10414721;28;20060;-71
2021/07/30 03:02:45;;;;;;;2.25;1.92;;;;;;;15.48;61.06;99677.03;10414185;28;20041;-71
2021/07/30 03:07:47;;;;;;;2.13;2.00;;;;;;;15.31;61.62;99675.34;10414737;28;20100;-71
2021/07/30 03:12:49;;;;;;;2.63;2.20;;;;;;;15.39;61.21;99675.75;10395449;28;20094;-71
2021/07/30 03:17:50;;;;;;;3.88;2.42;;;;;;;15.33;61.59;99676.13;10396284;28;20052;-71
2021/07/30 03:22:52;;;;;;;3.53;2.40;;;;;;;15.30;61.43;99668.34;10413891;28;20056;-72
2021/07/30 03:27:53;;;;;;;2.83;2.53;;;;;;;15.28;61.31;99666.72;10415582;28;20378;-72
2021/07/30 03:32:55;;;;;;;3.30;2.40;;;;;;;15.21;61.58;99670.66;10414086;28;20041;-71
2021/07/30 03:37:57;;;;;;;2.13;1.98;;;;;;;15.37;60.89;99660.91;10396739;28;20479;-72
2021/07/30 03:42:59;;;;;;;3.33;2.60;;;;;;;15.47;60.90;99667.38;10414932;28;20049;-73
2021/07/30 03:48:00;;;;;;;2.65;1.95;;;;;;;15.49;60.90;99668.13;10415432;28;20052;-73
2021/07/30 03:53:02;;;;;;;3.83;2.22;;;;;;;15.41;60.94;99665.09;10415109;28;20503;-71
2021/07/30 03:58:04;;;;;;;2.30;2.08;;;;;;;15.38;61.09;99671.41;10396086;28;20069;-73
2021/07/30 04:03:05;;;;;;;2.67;2.10;;;;;;;15.32;61.53;99674.41;10415877;28;20050;-72
2021/07/30 04:08:07;;;;;;;6.53;2.45;;;;;;;15.31;61.83;99672.69;10397331;28;20424;-72
2021/07/30 04:13:08;;;;;;;2.70;2.30;;;;;;;15.33;61.94;99672.63;10416768;28;20083;-72
2021/07/30 04:18:10;;;;;;;2.47;2.25;;;;;;;15.39;61.77;99678.41;10394952;28;20045;-73
2021/07/30 04:23:12;;;;;;;3.28;2.33;;;;;;;15.42;61.55;99679.19;10394491;28;20108;-73
2021/07/30 04:28:14;;;;;;;3.53;2.40;;;;;;;15.47;61.59;99680.63;10412958;28;20412;-72
2021/07/30 04:33:15;;;;;;;2.60;2.20;;;;;;;15.63;60.96;99677.94;10414556;28;20037;-73
2021/07/30 04:38:17;;;;;;;4.57;2.40;;;;;;;15.57;61.06;99689.72;10412012;28;20045;-72
2021/07/30 04:43:18;;;;;;;2.30;2.10;;;;;;;15.83;60.74;99682.09;10411670;28;20041;-72
2021/07/30 04:48:20;;;;;;;3.47;2.17;;;;;;;16.12;60.46;99688.34;10412599;28;20160;-73
2021/07/30 04:53:21;;;;;;;2.97;1.92;;;;;;;16.07;60.23;99675.34;10414250;28;20042;-72
2021/07/30 04:58:23;;;;;;;4.10;2.38;;;;;;;16.29;60.25;99679.31;10411498;28;20049;-72
2021/07/30 05:03:25;;;;;;;5.50;2.22;;;;;;;16.18;59.66;99676.50;10409787;28;20056;-71
2021/07/30 05:08:26;;;;;;;2.58;2.13;;;;;;;16.39;59.67;99688.44;10393998;28;20105;-72
2021/07/30 05:13:28;;;;;;;12.00;2.38;;;;;;;16.52;59.63;99684.09;10413216;28;20045;-73
2021/07/30 05:18:29;;;;;;;2.47;2.00;;;;;;;16.67;59.17;99679.63;10397407;28;20387;-73
2021/07/30 05:23:32;;;;;;;4.38;1.88;;;;;;;16.82;59.91;99675.19;10411309;28;20041;-71
2021/07/30 05:28:34;;;;;;;3.38;1.98;;;;;;;17.19;58.38;99686.13;10410741;28;20050;-72
2021/07/30 05:33:36;;;;;;;3.30;2.08;;;;;;;17.34;58.18;99680.66;10392306;28;20054;-71
2021/07/30 05:38:37;;;;;;;4.40;1.85;;;;;;;17.76;57.00;99676.16;10413289;28;20152;-72
2021/07/30 05:43:40;;;;;;;2.92;1.63;;;;;;;18.18;56.22;99678.66;10409796;28;20079;-71
2021/07/30 05:48:42;;;;;;;2.80;1.70;;;;;;;18.23;55.31;99668.53;10409633;28;20101;-72
2021/07/30 05:53:44;;;;;;;6.55;1.83;;;;;;;18.64;53.99;99671.84;10410734;28;20057;-73
2021/07/30 05:58:45;;;;;;;2.67;2.15;;;;;;;19.26;53.13;99670.09;10411271;28;20403;-71
2021/07/30 06:03:47;;;;;;;2.63;1.98;;;;;;;19.63;52.66;99673.59;10418388;28;20484;-71
2021/07/30 06:08:49;;;;;;;2.38;2.10;;;;;;;20.26;50.77;99668.78;10417582;28;20349;-72
2021/07/30 06:13:54;;;;;;;5.32;2.30;;;;;;;20.96;48.81;99671.25;10399009;28;20116;-72
2021/07/30 06:18:55;;;;;;;3.22;1.80;;;;;;;21.35;47.72;99663.66;10416972;28;20046;-72
2021/07/30 06:23:57;;;;;;;4.47;1.65;;;;;;;21.96;48.55;99666.56;10418874;28;20431;-72
2021/07/30 06:28:58;;;;;;;2.15;1.77;;;;;;;22.45;45.29;99659.69;10416133;28;20108;-72
2021/07/30 06:34:00;;;;;;;1.40;1.30;;;;;;;22.94;45.85;99657.22;10416401;28;20383;-72
2021/07/30 06:39:02;;;;;;;3.40;1.48;;;;;;;23.38;43.44;99648.69;10398375;28;20042;-73
2021/07/30 06:44:04;;;;;;;2.72;1.10;;;;;;;23.48;44.49;99646.03;10399513;28;20049;-72
2021/07/30 06:49:06;;;;;;;1.83;1.20;;;;;;;23.87;42.70;99638.84;10398867;28;20057;-72
2021/07/30 06:54:08;;;;;;;1.60;1.10;;;;;;;23.78;40.67;99647.75;10415842;28;20041;-72
2021/07/30 06:59:09;;;;;;;2.92;1.20;;;;;;;23.60;41.38;99644.06;10416747;28;20060;-72
2021/07/30 07:04:11;;;;;;;2.50;1.00;;;;;;;23.58;40.20;99640.66;10417578;28;20048;-73
2021/07/30 07:09:12;;;;;;;1.85;0.82;;;;;;;23.59;41.48;99635.13;10416722;28;20053;-72
2021/07/30 07:14:14;;;;;;;2.05;1.00;;;;;;;23.78;39.63;99631.66;10397674;28;20041;-71
2021/07/30 07:19:16;;;;;;;2.88;1.33;;;;;;;23.36;40.60;99623.00;10395792;28;20050;-71
2021/07/30 07:24:17;;;;;;;2.65;1.08;;;;;;;23.48;38.74;99618.34;10415106;28;20045;-71
2021/07/30 07:29:19;;;;;;;1.27;0.95;;;;;;;23.35;41.23;99614.09;10398412;28;20063;-71
2021/07/30 07:34:21;;;;;;;2.60;0.90;;;;;;;23.45;40.11;99613.25;10394928;28;20065;-70
2021/07/30 07:39:23;;;;;;;1.70;0.95;;;;;;;23.42;40.50;99606.38;10413150;28;20057;-71
2021/07/30 07:44:28;;;;;;;2.70;1.00;;;;;;;23.55;40.48;99608.72;10395938;28;20033;-70
2021/07/30 07:49:29;;;;;;;3.13;1.08;;;;;;;23.51;40.06;99608.19;10397929;28;20195;-71
2021/07/30 07:54:31;;;;;;;1.35;1.10;;;;;;;23.87;40.68;99606.63;10413021;28;20151;-70
2021/07/30 07:59:36;;;;;;;1.48;1.10;;;;;;;24.21;40.52;99611.47;10411908;28;20483;-70
2021/07/30 08:04:38;;;;;;;2.87;1.10;;;;;;;24.15;38.96;99602.16;10412569;28;20059;-71
2021/07/30 08:09:39;;;;;;;1.80;0.95;;;;;;;24.09;39.46;99596.56;10413927;28;20060;-71
2021/07/30 08:14:41;;;;;;;4.47;1.00;;;;;;;23.88;39.61;99594.06;10395452;28;20132;-71
2021/07/30 08:19:47;;;;;;;2.03;1.02;;;;;;;23.88;38.82;99600.25;10412026;28;20490;-71
2021/07/30 08:24:49;;;;;;;5.15;1.30;;;;;;;23.77;39.85;99597.72;10393472;28;20144;-70
2021/07/30 08:29:50;;;;;;;1.10;0.90;;;;;;;23.57;39.64;99590.66;10411620;28;20057;-71
2021/07/30 08:34:52;;;;;;;2.22;1.40;;;;;;;23.48;39.66;99589.69;10394988;28;20128;-71
2021/07/30 08:39:54;;;;;;;2.15;1.17;;;;;;;23.70;39.83;99591.25;10490926;22;20070;-74
2021/07/30 08:44:55;;;;;;;3.10;1.13;;;;;;;24.11;38.45;99592.72;10520540;28;20142;-73
2021/07/30 08:49:58;;;;;;;1.40;0.93;;;;;;;24.30;39.02;99583.72;10538917;28;20036;-73
2021/07/30 08:55:00;;;;;;;2.08;1.00;;;;;;;24.47;37.64;99575.91;10519043;28;20052;-71
2021/07/30 09:00:11;;;;;;;3.28;1.08;;;;;;;24.07;41.25;99585.94;10536587;28;20075;-74
2021/07/30 09:05:29;;;;;;;2.75;1.20;;;;;;;24.61;39.46;99580.78;10537176;28;20444;-72
2021/07/30 09:10:39;;;;;;;3.60;1.23;;;;;;;24.92;39.71;99571.44;10517831;28;20044;-73
2021/07/30 09:15:43;;;;;;;1.40;1.15;;;;;;;24.82;38.48;99572.47;10535417;28;20040;-73
2021/07/30 09:20:44;;;;;;;3.97;1.20;;;;;;;24.76;38.62;99571.25;10516560;28;20044;-72
2021/07/30 09:25:46;;;;;;;1.30;1.17;;;;;;;24.92;39.22;99567.88;10535203;28;20060;-73
2021/07/30 09:30:57;;;;;;;3.55;1.30;;;;;;;25.15;37.53;99553.03;10534770;28;20173;-72
2021/07/30 09:35:59;;;;;;;2.28;1.20;;;;;;;25.39;38.93;99551.56;10541055;28;20036;-73
2021/07/30 09:41:12;;;;;;;2.47;1.10;;;;;;;25.23;38.00;99562.16;10524646;28;20517;-73
2021/07/30 09:46:15;;;;;;;2.58;1.10;;;;;;;25.82;36.92;99544.50;10543910;28;20044;-73
2021/07/30 09:51:18;;;;;;;4.85;1.33;;;;;;;25.63;36.81;99541.00;10524746;28;20044;-73
2021/07/30 09:56:22;;;;;;;1.80;1.15;;;;;;;25.54;37.35;99539.22;10524608;28;20051;-73
2021/07/30 10:01:24;;;;;;;2.60;1.10;;;;;;;26.10;35.70;99537.09;10525420;28;20078;-73
2021/07/30 10:06:27;;;;;;;2.28;1.20;;;;;;;26.25;36.67;99527.38;10542659;28;20051;-73
2021/07/30 10:11:29;;;;;;;3.55;1.30;;;;;;;26.83;34.51;99517.69;10542382;28;20040;-74
2021/07/30 10:16:35;;;;;;;1.45;1.00;;;;;;;26.73;35.57;99519.69;10540526;28;20071;-75
2021/07/30 10:21:37;;;;;;;2.17;1.10;;;;;;;27.00;38.16;99522.06;10522511;28;20052;-74
2021/07/30 10:26:39;;;;;;;1.55;1.23;;;;;;;27.14;34.06;99509.84;10540907;28;20036;-74
2021/07/30 10:31:50;;;;;;;3.00;1.10;;;;;;;27.41;34.21;99505.97;10541324;28;20397;-75
2021/07/30 10:36:52;;;;;;;2.70;1.27;;;;;;;27.26;35.53;99496.84;10540750;28;20058;-73
2021/07/30 10:42:13;;;;;;;1.30;1.05;;;;;;;27.64;34.30;99500.69;10540746;28;20121;-74
2021/07/30 10:47:19;;;;;;;3.58;1.17;;;;;;;27.88;34.58;99497.13;10539838;28;20475;-75
2021/07/30 10:52:26;;;;;;;2.47;1.30;;;;;;;27.45;38.05;99480.31;10521793;28;20107;-74
2021/07/30 10:57:51;;;;;;;1.10;1.00;;;;;;;27.63;33.56;99466.63;10539670;28;20050;-74
2021/07/30 11:03:04;;;;;;;2.77;1.20;;;;;;;27.90;33.62;99473.50;10539664;28;20083;-74
2021/07/30 11:08:06;;;;;;;1.70;1.00;;;;;;;28.52;34.51;99465.47;10540108;28;20458;-74
2021/07/30 11:13:12;;;;;;;2.70;0.95;;;;;;;28.25;32.66;99457.81;10520550;28;20040;-73
2021/07/30 11:18:15;;;;;;;1.50;1.10;;;;;;;28.48;32.54;99452.50;10539016;28;20050;-74
2021/07/30 11:23:21;;;;;;;2.03;1.00;;;;;;;28.64;33.96;99450.53;10539205;28;20110;-74
2021/07/30 11:28:23;;;;;;;1.40;1.20;;;;;;;29.20;33.81;99449.44;10520714;28;20055;-74
2021/07/30 11:33:25;;;;;;;1.83;1.00;;;;;;;29.67;32.94;99442.94;10520614;28;20459;-74
2021/07/30 11:38:27;;;;;;;3.00;1.10;;;;;;;29.56;31.57;99425.25;10538476;28;20039;-74
2021/07/30 11:43:29;;;;;;;2.50;1.70;;;;;;;29.81;32.44;99420.41;10537522;28;20066;-74
2021/07/30 11:48:31;;;;;;;1.98;0.93;;;;;;;29.38;30.90;99418.28;10536629;28;20516;-73
2021/07/30 11:53:32;;;;;;;1.65;1.15;;;;;;;29.43;31.39;99415.03;10535638;28;20056;-74
2021/07/30 11:58:34;;;;;;;3.17;1.17;;;;;;;29.02;31.73;99404.59;10536472;28;20097;-73
2021/07/30 12:03:36;;;;;;;3.28;1.40;;;;;;;29.40;32.92;99386.47;10537166;28;20076;-73
2021/07/30 12:08:37;;;;;;;2.67;1.20;;;;;;;29.76;32.79;99398.47;10536813;28;20044;-73
2021/07/30 12:13:39;;;;;;;2.97;1.40;;;;;;;29.24;31.55;99399.34;10518264;28;20056;-73
2021/07/30 12:18:42;;;;;;;1.60;1.00;;;;;;;28.95;33.43;99391.94;10518276;28;20136;-73
2021/07/30 12:23:43;;;;;;;1.77;1.20;;;;;;;29.39;34.01;99381.22;10517787;28;20139;-72
2021/07/30 12:28:45;;;;;;;2.38;1.17;;;;;;;29.36;32.23;99373.50;10536350;28;20342;-73
2021/07/30 12:33:47;;;;;;;2.08;1.08;;;;;;;29.11;32.05;99372.91;10536274;28;20108;-73
2021/07/30 12:38:53;;;;;;;1.83;1.38;;;;;;;29.35;32.54;99364.53;10537218;28;20076;-74
2021/07/30 12:43:54;;;;;;;1.92;1.20;;;;;;;29.23;31.03;99355.19;10536378;28;20044;-74
2021/07/30 12:48:56;;;;;;;1.73;1.13;;;;;;;29.21;32.59;99341.00;10536115;28;20134;-74
2021/07/30 12:54:11;;;;;;;4.35;1.50;;;;;;;29.38;31.67;99342.50;10535686;28;20417;-73
2021/07/30 12:59:13;;;;;;;3.20;1.27;;;;;;;29.06;33.59;99340.97;10518816;28;20058;-74
2021/07/30 13:04:14;;;;;;;1.75;1.10;;;;;;;28.99;32.68;99323.78;10536315;28;20044;-73
2021/07/30 13:09:16;;;;;;;1.30;1.20;;;;;;;29.15;32.80;99329.03;10517333;28;20048;-73
2021/07/30 13:14:17;;;;;;;3.03;1.42;;;;;;;28.92;33.09;99320.13;10518085;28;20134;-74
2021/07/30 13:19:19;;;;;;;2.08;1.50;;;;;;;29.00;32.81;99305.69;10536574;28;20409;-73
2021/07/30 13:24:21;;;;;;;2.47;1.40;;;;;;;29.41;32.37;99295.25;10501546;28;20147;-73
2021/07/30 13:29:23;;;;;;;2.10;1.25;;;;;;;29.60;32.30;99293.88;10536968;28;20059;-73
2021/07/30 13:34:24;;;;;;;1.20;1.10;;;;;;;28.95;31.74;99284.56;10535276;28;20359;-73
2021/07/30 13:39:26;;;;;;;1.40;1.30;;;;;;;29.29;31.62;99281.34;10535277;28;20047;-73
2021/07/30 13:44:28;;;;;;;2.95;1.15;;;;;;;29.10;32.06;99277.34;10517567;28;20435;-72
2021/07/30 13:49:29;;;;;;;2.05;1.48;;;;;;;29.13;32.49;99276.13;10517086;28;20066;-71
2021/07/30 13:54:31;;;;;;;2.53;1.42;;;;;;;29.01;32.21;99266.81;10535314;28;20086;-71
2021/07/30 13:59:32;;;;;;;4.05;1.52;;;;;;;29.09;31.51;99267.56;10535147;28;20064;-72
2021/07/30 14:04:37;;;;;;;1.95;1.40;;;;;;;28.78;32.19;99258.75;10518000;28;20058;-71
2021/07/30 14:09:38;;;;;;;1.83;1.40;;;;;;;28.88;33.41;99257.44;10517609;28;20048;-72
2021/07/30 14:14:40;;;;;;;3.33;1.48;;;;;;;29.24;33.18;99250.47;10515620;28;20051;-71
2021/07/30 14:19:42;;;;;;;1.42;1.13;;;;;;;29.10;33.84;99244.88;10534326;28;20145;-71
2021/07/30 14:24:44;;;;;;;2.30;1.17;;;;;;;29.11;34.56;99246.56;10541352;28;20048;-72
2021/07/30 14:29:45;;;;;;;3.60;1.70;;;;;;;28.92;31.97;99231.69;10540808;28;20101;-71
2021/07/30 14:35:07;;;;;;;2.63;1.42;;;;;;;28.55;33.08;99220.91;10523638;28;20043;-72
2021/07/30 14:40:09;;;;;;;1.90;1.40;;;;;;;28.88;32.65;99213.31;10567934;22;20040;-82
2021/07/30 14:45:11;;;;;;;1.95;1.40;;;;;;;28.80;32.50;99222.34;10533933;28;20044;-82
2021/07/30 14:50:13;;;;;;;1.73;1.40;;;;;;;28.79;35.46;99206.31;10536032;28;20071;-84
2021/07/30 14:55:14;;;;;;;4.55;2.75;;;;;;;28.79;34.21;99200.91;10537905;28;20119;-82
2021/07/30 15:00:16;;;;;;;1.73;1.15;;;;;;;28.76;34.10;99188.59;10519257;28;20048;-81
2021/07/30 15:05:17;;;;;;;5.38;1.50;;;;;;;28.57;34.44;99186.44;10539813;28;20062;-82
2021/07/30 15:10:19;;;;;;;1.40;1.30;;;;;;;28.46;33.68;99187.72;10549581;28;20082;-82
2021/07/30 15:15:21;;;;;;;1.73;1.30;;;;;;;28.50;32.64;99183.63;10536427;28;20120;-82
2021/07/30 15:20:22;;;;;;;2.00;1.33;;;;;;;28.60;33.72;99161.75;10552217;28;20465;-83
2021/07/30 15:25:24;;;;;;;3.80;1.63;;;;;;;28.51;33.42;99173.66;10543602;28;20040;-82
2021/07/30 15:30:26;;;;;;;3.03;1.45;;;;;;;28.37;33.61;99159.94;10539553;28;20143;-82
2021/07/30 15:35:27;;;;;;;2.35;1.25;;;;;;;28.34;34.50;99148.66;10562814;28;20046;-81
2021/07/30 15:40:29;;;;;;;3.28;1.23;;;;;;;28.59;33.69;99143.81;10546066;28;20051;-83
2021/07/30 15:45:30;;;;;;;1.73;1.63;;;;;;;28.56;33.86;99139.66;10538736;28;20481;-82
2021/07/30 15:50:33;;;;;;;2.22;1.83;;;;;;;28.54;33.79;99130.03;10542410;28;20059;-83
2021/07/30 15:55:35;;;;;;;1.30;1.20;;;;;;;29.04;32.93;99129.28;10555566;28;20171;-81
2021/07/30 16:00:36;;;;;;;1.70;1.60;;;;;;;30.57;30.07;99119.88;10561149;28;20054;-83
2021/07/30 16:05:38;;;;;;;1.60;1.50;;;;;;;30.17;32.23;99126.91;10581838;28;20048;-83
2021/07/30 16:10:42;;;;;;;2.97;1.30;;;;;;;30.30;32.76;99135.97;10573733;28;20374;-84
2021/07/30 16:15:44;;;;;;;3.25;2.95;;;;;;;29.38;32.42;99142.16;10570285;28;20103;-84
2021/07/30 16:20:45;;;;;;;5.78;5.28;;;;;;;29.58;32.59;99134.28;10538853;28;20097;-83
2021/07/30 16:25:47;;;;;;;2.88;1.50;;;;;;;29.24;32.78;99136.81;10532119;28;20044;-82
2021/07/30 16:30:50;;;;;;;3.75;1.75;;;;;;;28.77;33.25;99125.34;10533676;28;20134;-81
2021/07/30 16:35:52;;;;;;;1.92;1.77;;;;;;;28.22;35.06;99123.91;10554125;28;20079;-81
2021/07/30 16:40:53;;;;;;;1.65;1.55;;;;;;;27.87;34.65;99128.97;10552794;28;20119;-82
2021/07/30 16:45:55;;;;;;;2.97;2.70;;;;;;;27.83;34.99;99127.66;10531984;28;20064;-82
2021/07/30 16:51:00;;;;;;;3.20;2.13;;;;;;;27.62;36.13;99119.34;10551953;28;20048;-82
2021/07/30 16:56:02;;;;;;;2.13;1.77;;;;;;;27.67;35.36;99116.97;10552961;28;20047;-82
2021/07/30 17:01:04;;;;;;;2.72;1.70;;;;;;;27.71;35.17;99114.72;10534620;28;20043;-83
2021/07/30 17:06:05;;;;;;;3.45;2.13;;;;;;;27.47;36.26;99110.34;10535225;28;20087;-83
2021/07/30 17:11:07;;;;;;;5.68;1.92;;;;;;;27.38;37.24;99107.72;10561985;28;20063;-83
2021/07/30 17:16:11;;;;;;;2.30;2.10;;;;;;;27.04;37.13;99109.91;10532670;28;20089;-84
2021/07/30 17:21:13;;;;;;;2.60;1.80;;;;;;;27.01;37.01;99103.03;10537442;28;20529;-84
2021/07/30 17:26:15;;;;;;;2.60;1.73;;;;;;;27.08;37.06;99112.06;10539227;28;20048;-84
2021/07/30 17:31:17;;;;;;;2.35;2.15;;;;;;;27.07;37.33;99110.41;10530699;28;20574;-84
2021/07/30 17:36:19;;;;;;;2.67;2.47;;;;;;;26.76;38.66;99106.84;10548138;28;20067;-83
2021/07/30 17:41:21;;;;;;;2.35;2.10;;;;;;;26.63;38.66;99113.63;10517946;28;20063;-85
2021/07/30 17:46:24;;;;;;;1.70;1.50;;;;;;;26.69;38.02;99111.25;10521076;28;20070;-84
2021/07/30 17:51:26;;;;;;;2.00;1.67;;;;;;;26.62;37.67;99114.66;10554968;28;20441;-84
2021/07/30 17:56:28;;;;;;;1.63;1.52;;;;;;;26.34;38.65;99116.03;10540298;28;20039;-83
2021/07/30 18:01:34;;;;;;;3.10;1.70;;;;;;;26.12;39.75;99123.84;10559671;28;20055;-83
2021/07/30 18:06:36;;;;;;;2.13;1.85;;;;;;;25.88;40.78;99118.47;10539502;28;20042;-85
2021/07/30 18:11:39;;;;;;;1.90;1.63;;;;;;;25.64;42.29;99117.44;10540516;28;20051;-84
2021/07/30 18:16:41;;;;;;;2.08;1.88;;;;;;;25.53;42.64;99119.59;10548104;28;20052;-84
2021/07/30 18:21:43;;;;;;;3.33;2.00;;;;;;;25.33;43.78;99114.53;10540373;28;20052;-84
2021/07/30 18:26:45;;;;;;;2.58;2.38;;;;;;;25.48;43.95;99109.34;10540266;28;20063;-84
2021/07/30 18:31:47;;;;;;;2.72;2.17;;;;;;;25.24;45.27;99115.53;10541545;28;20115;-85
2021/07/30 18:36:49;;;;;;;4.25;2.00;;;;;;;25.01;46.59;99111.72;10559503;28;20032;-83
2021/07/30 18:41:50;;;;;;;3.25;2.15;;;;;;;24.88;46.06;99109.50;10548019;28;20238;-82
2021/07/30 18:46:52;;;;;;;2.67;2.30;;;;;;;24.67;46.66;99113.47;10544075;28;20048;-83
2021/07/30 18:51:54;;;;;;;5.00;2.42;;;;;;;24.25;48.07;99118.72;10549086;28;20095;-83
2021/07/30 18:56:55;;;;;;;4.57;2.30;;;;;;;24.37;47.36;99125.56;10551465;28;20100;-84
2021/07/30 19:01:57;;;;;;;2.60;2.40;;;;;;;24.28;48.57;99125.63;10564659;28;20048;-84
2021/07/30 19:06:59;;;;;;;3.67;2.58;;;;;;;23.97;48.95;99127.94;10549047;28;20047;-85
2021/07/30 19:12:01;;;;;;;3.15;2.85;;;;;;;23.78;49.46;99126.28;10543382;28;20052;-84
2021/07/30 19:17:20;;;;;;;3.85;2.67;;;;;;;23.61;49.68;99126.09;10530218;28;20088;-84
2021/07/30 19:22:22;;;;;;;7.10;2.65;;;;;;;23.40;50.36;99128.25;10535940;28;20113;-83
2021/07/30 19:27:23;;;;;;;3.40;3.08;;;;;;;23.28;50.83;99124.09;10532987;28;20044;-83
2021/07/30 19:32:25;;;;;;;5.00;3.65;;;;;;;23.06;51.46;99131.56;10534530;28;20052;-83
2021/07/30 19:37:27;;;;;;;4.05;3.20;;;;;;;22.99;51.78;99127.81;10533409;28;20459;-84
2021/07/30 19:42:29;;;;;;;4.22;3.83;;;;;;;22.78;52.47;99127.19;10534332;28;20059;-85
2021/07/30 19:47:31;;;;;;;3.92;3.53;;;;;;;22.71;52.89;99120.72;10523045;28;20052;-86
2021/07/30 19:52:33;;;;;;;4.32;3.63;;;;;;;22.54;53.61;99125.03;10547989;28;20070;-85
2021/07/30 19:57:35;;;;;;;6.35;3.85;;;;;;;22.36;53.74;99127.66;10542118;28;20063;-86
2021/07/30 20:02:38;;;;;;;6.15;3.50;;;;;;;22.29;53.30;99134.56;10542237;28;20051;-86
2021/07/30 20:07:39;;;;;;;5.50;3.72;;;;;;;22.16;53.85;99141.06;10542229;28;20146;-86
2021/07/30 20:12:41;;;;;;;3.58;3.28;;;;;;;22.09;53.46;99144.41;10540683;28;20086;-85
2021/07/30 20:17:42;;;;;;;5.00;3.45;;;;;;;22.16;53.49;99134.88;10530978;28;20090;-84
2021/07/30 20:22:44;;;;;;;3.13;2.80;;;;;;;22.24;53.39;99126.13;10533461;28;20044;-86
2021/07/30 20:27:46;;;;;;;6.47;4.03;;;;;;;22.12;53.81;99122.75;10549613;28;20068;-83
2021/07/30 20:32:47;;;;;;;4.53;3.75;;;;;;;22.00;53.35;99111.38;10564528;28;20118;-84
2021/07/30 20:37:49;;;;;;;4.60;3.63;;;;;;;22.18;53.43;99103.47;10560384;28;20036;-82
2021/07/30 20:42:51;;;;;;;4.45;3.90;;;;;;;22.06;53.05;99108.09;10471811;22;20076;-82
2021/07/30 20:47:52;;;;;;;12.50;3.88;;;;;;;22.01;53.29;99105.03;10465566;28;20045;-81
2021/07/30 20:52:54;;;;;;;3.63;3.33;;;;;;;22.05;53.08;99113.59;10469457;28;20079;-82
2021/07/30 20:57:56;;;;;;;4.72;3.03;;;;;;;21.98;53.55;99107.97;10454871;28;20402;-84
2021/07/30 21:02:57;;;;;;;4.85;3.80;;;;;;;21.73;54.17;99114.75;10455573;28;20048;-83
2021/07/30 21:07:59;;;;;;;3.63;3.30;;;;;;;21.69;54.82;99104.50;10452986;28;20103;-83
2021/07/30 21:13:00;;;;;;;3.75;3.40;;;;;;;21.74;54.82;99110.28;10469321;28;20037;-84
2021/07/30 21:18:02;;;;;;;4.13;3.60;;;;;;;21.59;54.60;99121.38;10469346;28;20068;-82
2021/07/30 21:23:04;;;;;;;4.32;3.22;;;;;;;21.61;53.47;99116.75;10468928;28;20049;-82
2021/07/30 21:28:06;;;;;;;3.20;2.90;;;;;;;21.66;53.43;99124.34;10468902;28;20424;-84
2021/07/30 21:33:08;;;;;;;3.17;2.88;;;;;;;21.61;53.85;99121.25;10478558;28;20049;-83
2021/07/30 21:38:12;;;;;;;2.95;2.75;;;;;;;21.71;52.79;99126.59;10471439;28;20052;-82
2021/07/30 21:43:14;;;;;;;2.90;2.40;;;;;;;21.79;52.71;99118.72;10474227;28;20106;-80
2021/07/30 21:48:15;;;;;;;2.70;2.50;;;;;;;21.96;52.46;99115.31;10487969;28;20057;-82
2021/07/30 21:53:17;;;;;;;3.40;3.10;;;;;;;21.87;52.92;99121.53;10486020;28;20111;-84
2021/07/30 21:58:18;;;;;;;3.28;2.97;;;;;;;21.65;53.27;99133.38;10488161;28;20045;-80
2021/07/30 22:03:20;;;;;;;3.67;3.10;;;;;;;21.50;53.92;99127.56;10478759;28;20049;-80
2021/07/30 22:08:25;;;;;;;3.25;2.95;;;;;;;21.49;53.87;99136.59;10485666;28;20045;-84
2021/07/30 22:13:27;;;;;;;3.13;2.85;;;;;;;21.51;53.88;99141.78;10479812;28;20053;-83
2021/07/30 22:18:32;;;;;;;3.40;3.10;;;;;;;21.47;53.60;99130.56;10477721;28;20048;-83
2021/07/30 22:23:35;;;;;;;3.25;3.03;;;;;;;21.48;53.88;99126.03;10477417;28;20115;-82
2021/07/30 22:28:36;;;;;;;3.67;3.38;;;;;;;21.27;54.47;99123.47;10479094;28;20045;-83
2021/07/30 22:33:38;;;;;;;3.17;2.88;;;;;;;21.30;54.25;99123.19;10478039;28;20083;-83
2021/07/30 22:38:40;;;;;;;3.10;2.90;;;;;;;21.26;53.97;99122.63;10479871;28;20115;-83
2021/07/30 22:43:41;;;;;;;5.60;2.88;;;;;;;21.28;54.09;99114.44;10461760;28;20457;-85
2021/07/30 22:48:43;;;;;;;3.50;3.03;;;;;;;21.14;54.66;99113.88;10479279;28;20430;-83
2021/07/30 22:53:44;;;;;;;3.47;3.17;;;;;;;21.21;54.29;99119.50;10479616;28;20107;-83
2021/07/30 22:58:46;;;;;;;3.35;2.92;;;;;;;21.22;53.99;99123.88;10477429;28;20085;-84
2021/07/30 23:03:47;;;;;;;3.25;3.03;;;;;;;21.33;53.48;99126.44;10477308;28;20103;-84
2021/07/30 23:08:50;;;;;;;3.50;3.20;;;;;;;21.39;53.46;99128.56;10480276;28;20053;-82
2021/07/30 23:13:51;;;;;;;3.58;3.38;;;;;;;21.28;53.90;99130.47;10486745;28;20127;-84
2021/07/30 23:18:53;;;;;;;4.18;3.83;;;;;;;21.21;53.70;99132.03;10486365;28;20059;-84
2021/07/30 23:23:55;;;;;;;4.97;3.40;;;;;;;21.31;53.61;99125.75;10484940;28;20053;-83